Homewood Airport

CJT8 · 曼尼托巴, 加拿大

使用的METAR站距离机场34 NM。
罗盘
风向 的 风向 180° Homewood Airport 8/26
风向 到 风: 20 kt, 阵阵 28 kt, 5 beaufort


20 kt
改变
0 ft 5.000 10.000 15.000 20.000
Cloud Cloud
FEW 14.000
METAR CYWG 240800Z 18020G28KT 15SM FEW140 M07/M11 A2971 RMK AC2 PRESFR SLP079

METAR Homewood Airport - CJT8

Homewood Airport是,加拿大中的小机场。 该机场位于纬度49,50974和经度-97,85033。 该机场有一条跑道: 8/26. 该机场的伪ICAO代码为CJT8。 机场在Winnipeg FIR中。

该航空气象观测是针对Winnipeg / James Armstrong Richardson International Airport在2024年2月24日 02:00, 当地时间进行的。

机场观察

风向为180°,速度为20 kt。 已测得28 kt的阵风。

可见度为15 mi。

有几云在14.000 ft的高度。 没有观察到天花板。

温度为-7 °C,阵风为-19 °C。 露点为-11 °C,相对湿度为73%。 海平面上的气压为29,71 inHg (QNH)。

白天

今天,太阳从07:24升起,在18:05降落。 这适用于Homewood Airport,世界夏令时可能有所不同。 当地时间与世界标准时间之间的时差为-6 小时。 当前,没有夏令时有效。

公司介绍

我们没有关于这个机场的公司信息。

体会

到Vliegles.nl去找飞行课程,跳伞和其他飞行体验。 浏览页面,了解Homewood Airport附近所有可用的活动。 你也可以使用搜索功能来寻找你所在地附近的特定飞行课程、跳伞或其他飞行体验。

跑道

Id 标题 侧风 逆风 侧风 %
8/26 089°-269° 20-28 kt 100 %

逆风成分最大的方向会被突出显示,并用于横风计算。 这并不一定意味着这个方向在使用。

乌云

14.000 ft FEW 几云

温度 & 天气

温度 -7 °C
露点 -11 °C
相对湿度 73%
风寒 -19 °C
Kp-index 0 (0-9)

评论

PRESFR气压迅速下降
SLP079海平面压力为29,76 inHg (29,76 inHg)
AC2

白天

日出
07:22 (4:15)
中午
12:42
日落
18:02

小工具

你想在你的网站上有一个关于Homewood Airport的当前航空天气(METAR)的小部件吗?

显示HTML代码
?>